CKY6 weather

CLOSED Gainsborough Airport
Gainsborough, Saskatchewan, Canada

Public forecast

Using degrees Celsius for public forecast. Weather courtesy of forecast.io.

METAR (pilot weather report)

Closest report is Minot Air Force Base, 46.2 nm (85.5 km) S. Retrieved 2019/07/21 05:56 UTC (43 minutes ago):

KMIB 210556Z AUTO 00000KT 10SM CLR 11/09 A3008 RMK AO2 SLP191 T01090093 10241 20109 402480109 52012 $

TAF (pilot weather forecast)

Forecast is more than 12 hours old.

Closest forecast is Minot Air Force Base, 46.2 nm (85.5 km) S. Retrieved 2019/07/19 17:09 UTC (2 days ago):

TAF KMIB 191700Z 1917/2023 29015G20KT 9999 SKC QNH2976INS BECMG 2000/2001 28009KT 9999 FEW150 QNH2980INS TX25/1922Z TN12/2011Z LAST NO AMDS AFT 1917 NEXT 2909